createdAt,value
2023-01-17T00:00:14.254Z,3.32
2023-01-17T00:01:14.188Z,3.37
2023-01-17T00:02:14.192Z,3.37
2023-01-17T00:03:14.172Z,3.41
2023-01-17T00:04:14.158Z,3.42
2023-01-17T00:05:14.160Z,3.44
2023-01-17T00:06:14.159Z,3.45
2023-01-17T00:07:14.123Z,3.45
2023-01-17T00:08:14.121Z,3.46
2023-01-17T00:09:14.093Z,3.49
2023-01-17T00:10:14.096Z,3.49
2023-01-17T00:11:14.084Z,3.51
2023-01-17T00:12:14.124Z,3.49
2023-01-17T00:13:14.071Z,3.51
2023-01-17T00:14:14.063Z,3.51
2023-01-17T00:15:14.035Z,3.51
2023-01-17T00:16:14.060Z,3.52
2023-01-17T00:17:14.039Z,3.49
2023-01-17T00:18:14.009Z,3.51
2023-01-17T00:19:13.995Z,3.52
2023-01-17T00:20:14.000Z,3.52
2023-01-17T00:21:13.980Z,3.52
2023-01-17T00:22:13.985Z,3.52
2023-01-17T00:23:13.976Z,3.54
2023-01-17T00:24:13.947Z,3.52
2023-01-17T00:25:13.921Z,3.54
2023-01-17T00:26:13.940Z,3.54
2023-01-17T00:27:13.904Z,3.54
2023-01-17T00:28:13.929Z,3.52
2023-01-17T00:29:13.901Z,3.54
2023-01-17T00:30:13.888Z,3.54
2023-01-17T00:31:13.984Z,3.52
2023-01-17T00:32:13.864Z,3.54
2023-01-17T00:33:13.883Z,3.52
2023-01-17T00:34:13.849Z,3.51
2023-01-17T00:35:13.822Z,3.52
2023-01-17T00:36:13.858Z,3.55
2023-01-17T00:37:13.815Z,3.54
2023-01-17T00:38:13.798Z,3.52
2023-01-17T00:39:21.783Z,3.52
2023-01-17T00:40:13.810Z,3.54
2023-01-17T00:41:13.790Z,3.52
2023-01-17T00:42:13.784Z,3.52
2023-01-17T00:43:13.890Z,3.52
2023-01-17T00:44:13.779Z,3.52
2023-01-17T00:45:13.897Z,3.49
2023-01-17T00:46:13.802Z,3.51
2023-01-17T00:47:13.748Z,3.51
2023-01-17T00:48:13.758Z,3.48
2023-01-17T00:49:13.741Z,3.49
2023-01-17T00:50:13.692Z,3.46
2023-01-17T00:51:13.693Z,3.45
2023-01-17T00:52:13.668Z,3.45
2023-01-17T00:53:13.713Z,3.46
2023-01-17T00:54:13.683Z,3.46
2023-01-17T00:55:13.956Z,3.44
2023-01-17T00:56:13.622Z,3.42
2023-01-17T00:57:13.684Z,3.44
2023-01-17T00:58:13.606Z,3.42
2023-01-17T00:59:13.656Z,3.42
2023-01-17T01:00:13.594Z,3.41
2023-01-17T01:01:13.645Z,3.41
2023-01-17T01:02:13.587Z,3.37
2023-01-17T01:03:13.544Z,3.35
2023-01-17T01:04:13.579Z,3.30
2023-01-17T01:05:13.582Z,3.27
2023-01-17T01:06:13.521Z,3.27
2023-01-17T01:07:13.523Z,3.26
2023-01-17T01:08:13.492Z,3.23
2023-01-17T01:09:13.491Z,3.23
2023-01-17T01:10:13.532Z,3.20
2023-01-17T01:11:13.460Z,3.20
2023-01-17T01:12:13.467Z,3.20
2023-01-17T01:13:13.464Z,3.18
2023-01-17T01:14:13.443Z,3.18
2023-01-17T01:15:13.510Z,3.18
2023-01-17T01:16:13.466Z,3.17
2023-01-17T01:17:13.402Z,3.17
2023-01-17T01:18:13.388Z,3.17
2023-01-17T01:19:13.407Z,3.15
2023-01-17T01:20:13.432Z,3.14
2023-01-17T01:21:13.377Z,3.12
2023-01-17T01:22:13.403Z,3.12
2023-01-17T01:23:13.400Z,3.14
2023-01-17T01:24:13.372Z,3.11
2023-01-17T01:25:13.362Z,3.09
2023-01-17T01:26:13.411Z,3.11
2023-01-17T01:27:13.424Z,3.12
2023-01-17T01:28:13.292Z,3.11
2023-01-17T01:29:13.269Z,3.12
2023-01-17T01:30:13.287Z,3.11
2023-01-17T01:31:13.342Z,3.12
2023-01-17T01:32:13.260Z,3.11
2023-01-17T01:33:13.251Z,3.09
2023-01-17T01:34:13.237Z,3.07
2023-01-17T01:35:13.242Z,3.09
2023-01-17T01:36:13.202Z,3.08
2023-01-17T01:37:13.197Z,3.07
2023-01-17T01:38:13.195Z,3.07
2023-01-17T01:39:13.165Z,3.04
2023-01-17T01:40:13.169Z,3.08
2023-01-17T01:41:13.151Z,3.05
2023-01-17T01:42:13.206Z,3.04
2023-01-17T01:43:13.137Z,3.04
2023-01-17T01:44:13.128Z,3.02
2023-01-17T01:45:13.108Z,3.00
2023-01-17T01:46:13.196Z,2.99
2023-01-17T01:47:13.103Z,2.97
2023-01-17T01:48:13.091Z,2.96
2023-01-17T01:49:13.087Z,2.97
2023-01-17T01:50:13.063Z,2.97
2023-01-17T01:51:13.395Z,2.91
2023-01-17T01:52:13.122Z,2.90
2023-01-17T01:53:13.147Z,2.90
2023-01-17T01:54:13.108Z,2.86
2023-01-17T01:55:13.006Z,2.82
2023-01-17T01:56:13.058Z,2.79
2023-01-17T01:57:12.979Z,2.81
2023-01-17T01:58:13.015Z,2.81
2023-01-17T01:59:12.960Z,2.78
2023-01-17T02:00:12.956Z,2.76
2023-01-17T02:01:13.003Z,2.76
2023-01-17T02:02:12.973Z,2.76
2023-01-17T02:03:12.938Z,2.72
2023-01-17T02:04:12.991Z,2.73
2023-01-17T02:05:12.917Z,2.73
2023-01-17T02:06:12.895Z,2.73
2023-01-17T02:07:12.890Z,2.72
2023-01-17T02:08:12.889Z,2.73
2023-01-17T02:09:12.888Z,2.73
2023-01-17T02:10:12.858Z,2.72
2023-01-17T02:11:12.829Z,2.73
2023-01-17T02:12:12.856Z,2.75
2023-01-17T02:13:12.829Z,2.75
2023-01-17T02:14:12.852Z,2.75
2023-01-17T02:15:12.808Z,2.76
2023-01-17T02:16:12.841Z,2.73
2023-01-17T02:17:12.770Z,2.75
2023-01-17T02:18:12.769Z,2.76
2023-01-17T02:19:12.847Z,2.76
2023-01-17T02:20:12.838Z,2.75
2023-01-17T02:21:12.723Z,2.76
2023-01-17T02:22:12.788Z,2.75
2023-01-17T02:23:12.734Z,2.75
2023-01-17T02:24:12.707Z,2.75
2023-01-17T02:25:12.701Z,2.75
2023-01-17T02:26:12.732Z,2.73
2023-01-17T02:27:12.670Z,2.73
2023-01-17T02:28:12.668Z,2.73
2023-01-17T02:29:12.674Z,2.72
2023-01-17T02:30:12.640Z,2.69
2023-01-17T02:31:12.642Z,2.68
2023-01-17T02:32:12.649Z,2.68
2023-01-17T02:33:12.641Z,2.66
2023-01-17T02:34:12.611Z,2.66
2023-01-17T02:35:12.615Z,2.66
2023-01-17T02:36:12.610Z,2.63
2023-01-17T02:37:12.583Z,2.63
2023-01-17T02:38:12.609Z,2.60
2023-01-17T02:39:12.555Z,2.60
2023-01-17T02:40:12.561Z,2.60
2023-01-17T02:41:12.526Z,2.58
2023-01-17T02:42:12.526Z,2.54
2023-01-17T02:43:12.520Z,2.54
2023-01-17T02:44:12.497Z,2.54
2023-01-17T02:45:12.550Z,2.54
2023-01-17T02:46:12.582Z,2.53
2023-01-17T02:47:12.485Z,2.48
2023-01-17T02:48:12.456Z,2.48
2023-01-17T02:49:12.462Z,2.40
2023-01-17T02:50:12.442Z,2.39
2023-01-17T02:51:12.444Z,2.39
2023-01-17T02:52:12.442Z,2.37
2023-01-17T02:53:12.400Z,2.39
2023-01-17T02:54:12.457Z,2.39
2023-01-17T02:55:12.394Z,2.37
2023-01-17T02:56:12.383Z,2.36
2023-01-17T02:57:12.368Z,2.35
2023-01-17T02:58:12.345Z,2.33
2023-01-17T02:59:12.336Z,2.32
2023-01-17T03:00:12.357Z,2.28
2023-01-17T03:01:12.420Z,2.25
2023-01-17T03:02:12.406Z,2.25
2023-01-17T03:03:12.334Z,2.24
2023-01-17T03:04:12.309Z,2.22
2023-01-17T03:05:12.314Z,2.21
2023-01-17T03:06:12.324Z,2.18
2023-01-17T03:07:12.260Z,2.18
2023-01-17T03:08:12.237Z,2.11
2023-01-17T03:09:12.277Z,2.10
2023-01-17T03:10:12.224Z,2.04
2023-01-17T03:11:12.296Z,2.04
2023-01-17T03:12:12.205Z,2.01
2023-01-17T03:13:12.199Z,1.99
2023-01-17T03:14:12.169Z,2.01
2023-01-17T03:15:12.179Z,1.97
2023-01-17T03:16:12.834Z,2.00
2023-01-17T03:17:12.164Z,1.95
2023-01-17T03:18:12.139Z,1.95
2023-01-17T03:19:12.139Z,1.97
2023-01-17T03:20:12.129Z,1.99
2023-01-17T03:21:12.146Z,1.99
2023-01-17T03:22:12.126Z,2.00
2023-01-17T03:23:12.101Z,2.00
2023-01-17T03:24:12.125Z,2.00
2023-01-17T03:25:12.087Z,2.01
2023-01-17T03:26:12.058Z,2.01
2023-01-17T03:27:12.092Z,2.03
2023-01-17T03:28:12.025Z,2.01
2023-01-17T03:29:12.035Z,2.01
2023-01-17T03:30:12.026Z,2.01
2023-01-17T03:31:12.011Z,2.01
2023-01-17T03:32:12.059Z,2.03
2023-01-17T03:33:11.991Z,2.03
2023-01-17T03:34:12.825Z,2.04
2023-01-17T03:35:11.967Z,2.00
2023-01-17T03:36:11.976Z,2.00
2023-01-17T03:37:11.962Z,2.01
2023-01-17T03:38:12.140Z,2.01
2023-01-17T03:39:11.977Z,1.99
2023-01-17T03:40:11.929Z,2.00
2023-01-17T03:41:11.915Z,2.03
2023-01-17T03:42:11.887Z,2.01
2023-01-17T03:43:11.924Z,2.01
2023-01-17T03:44:11.883Z,2.01
2023-01-17T03:45:11.865Z,2.01
2023-01-17T03:46:11.866Z,1.99
2023-01-17T03:47:11.903Z,1.95
2023-01-17T03:48:11.825Z,1.92
2023-01-17T03:49:11.840Z,1.89
2023-01-17T03:50:11.796Z,1.87
2023-01-17T03:51:11.804Z,1.85
2023-01-17T03:52:11.811Z,1.82
2023-01-17T03:53:11.788Z,1.77
2023-01-17T03:54:11.777Z,1.67
2023-01-17T03:55:11.774Z,1.67
2023-01-17T03:56:11.787Z,1.64
2023-01-17T03:57:11.761Z,1.62
2023-01-17T03:58:11.775Z,1.62
2023-01-17T03:59:13.264Z,1.59
2023-01-17T04:00:11.745Z,1.60
2023-01-17T04:01:11.782Z,1.60
2023-01-17T04:02:11.815Z,1.59
2023-01-17T04:03:11.751Z,1.59
2023-01-17T04:04:11.676Z,1.57
2023-01-17T04:05:11.817Z,1.56
2023-01-17T04:06:11.744Z,1.55
2023-01-17T04:07:11.679Z,1.55
2023-01-17T04:08:11.632Z,1.53
2023-01-17T04:09:11.627Z,1.52
2023-01-17T04:10:11.706Z,1.49
2023-01-17T04:11:11.598Z,1.49
2023-01-17T04:12:11.607Z,1.46
2023-01-17T04:13:11.593Z,1.46
2023-01-17T04:14:11.596Z,1.49
2023-01-17T04:15:11.543Z,1.49
2023-01-17T04:16:11.542Z,1.52
2023-01-17T04:17:11.533Z,1.52
2023-01-17T04:18:11.526Z,1.49
2023-01-17T04:19:11.504Z,1.45
2023-01-17T04:20:11.487Z,1.45
2023-01-17T04:21:11.502Z,1.42
2023-01-17T04:22:11.475Z,1.41
2023-01-17T04:23:11.529Z,1.39
2023-01-17T04:24:11.486Z,1.38
2023-01-17T04:25:11.450Z,1.38
2023-01-17T04:26:11.503Z,1.36
2023-01-17T04:27:11.431Z,1.35
2023-01-17T04:28:11.408Z,1.35
2023-01-17T04:29:11.461Z,1.34
2023-01-17T04:30:11.387Z,1.35
2023-01-17T04:31:11.506Z,1.35
2023-01-17T04:32:11.374Z,1.35
2023-01-17T04:33:11.363Z,1.36
2023-01-17T04:34:11.382Z,1.35
2023-01-17T04:35:11.336Z,1.38
2023-01-17T04:36:11.363Z,1.39
2023-01-17T04:37:11.334Z,1.39
2023-01-17T04:38:11.307Z,1.39
2023-01-17T04:39:11.363Z,1.41
2023-01-17T04:40:11.416Z,1.44
2023-01-17T04:41:11.295Z,1.44
2023-01-17T04:42:11.253Z,1.46
2023-01-17T04:43:11.282Z,1.44
2023-01-17T04:44:11.266Z,1.45
2023-01-17T04:45:11.269Z,1.48
2023-01-17T04:46:11.330Z,1.49
2023-01-17T04:47:11.212Z,1.52
2023-01-17T04:48:11.194Z,1.53
2023-01-17T04:49:11.208Z,1.57
2023-01-17T04:50:11.178Z,1.57
2023-01-17T04:51:11.184Z,1.59
2023-01-17T04:52:11.224Z,1.63
2023-01-17T04:53:11.170Z,1.62
2023-01-17T04:54:11.135Z,1.62
2023-01-17T04:55:11.182Z,1.63
2023-01-17T04:56:11.134Z,1.63
2023-01-17T04:57:11.121Z,1.66
2023-01-17T04:58:11.095Z,1.66
2023-01-17T04:59:11.169Z,1.67
2023-01-17T05:00:11.261Z,1.69
2023-01-17T05:01:11.235Z,1.71
2023-01-17T05:02:11.170Z,1.69
2023-01-17T05:03:11.057Z,1.71
2023-01-17T05:04:11.323Z,1.71
2023-01-17T05:05:11.252Z,1.73
2023-01-17T05:06:11.035Z,1.75
2023-01-17T05:07:11.003Z,1.77
2023-01-17T05:08:11.001Z,1.78
2023-01-17T05:09:11.007Z,1.78
2023-01-17T05:10:11.014Z,1.81
2023-01-17T05:11:11.008Z,1.80
2023-01-17T05:12:10.976Z,1.82
2023-01-17T05:13:10.954Z,1.82
2023-01-17T05:14:10.985Z,1.84
2023-01-17T05:15:10.994Z,1.84
2023-01-17T05:16:10.982Z,1.85
2023-01-17T05:17:10.942Z,1.85
2023-01-17T05:18:10.928Z,1.85
2023-01-17T05:19:10.915Z,1.84
2023-01-17T05:20:10.918Z,1.81
2023-01-17T05:21:10.943Z,1.80
2023-01-17T05:22:10.851Z,1.82
2023-01-17T05:23:10.853Z,1.80
2023-01-17T05:24:10.829Z,1.81
2023-01-17T05:25:10.853Z,1.80
2023-01-17T05:26:10.802Z,1.78
2023-01-17T05:27:10.875Z,1.78
2023-01-17T05:28:10.794Z,1.78
2023-01-17T05:29:10.799Z,1.77
2023-01-17T05:30:10.756Z,1.75
2023-01-17T05:31:10.872Z,1.74
2023-01-17T05:32:10.872Z,1.74
2023-01-17T05:33:10.736Z,1.73
2023-01-17T05:34:10.749Z,1.71
2023-01-17T05:35:10.721Z,1.69
2023-01-17T05:36:10.705Z,1.71
2023-01-17T05:37:10.740Z,1.69
2023-01-17T05:38:10.684Z,1.66
2023-01-17T05:39:10.690Z,1.60
2023-01-17T05:40:10.679Z,1.57
2023-01-17T05:41:10.697Z,1.56
2023-01-17T05:42:10.657Z,1.56
2023-01-17T05:43:10.627Z,1.56
2023-01-17T05:44:10.625Z,1.55
2023-01-17T05:45:10.633Z,1.55
2023-01-17T05:46:10.676Z,1.57
2023-01-17T05:47:10.598Z,1.53
2023-01-17T05:48:10.608Z,1.55
2023-01-17T05:49:10.625Z,1.57
2023-01-17T05:50:10.549Z,1.57
2023-01-17T05:51:10.549Z,1.57
2023-01-17T05:52:10.548Z,1.59
2023-01-17T05:53:10.551Z,1.59
2023-01-17T05:54:10.540Z,1.59
2023-01-17T05:55:10.521Z,1.59
2023-01-17T05:56:10.494Z,1.59
2023-01-17T05:57:10.490Z,1.60
2023-01-17T05:58:10.534Z,1.59
2023-01-17T05:59:13.210Z,1.59
2023-01-17T06:00:10.456Z,1.57
2023-01-17T06:01:10.601Z,1.56
2023-01-17T06:02:10.448Z,1.56
2023-01-17T06:03:10.479Z,1.56
2023-01-17T06:04:10.406Z,1.55
2023-01-17T06:05:10.409Z,1.49
2023-01-17T06:06:10.388Z,1.49
2023-01-17T06:07:10.380Z,1.49
2023-01-17T06:08:10.379Z,1.53
2023-01-17T06:09:10.366Z,1.49
2023-01-17T06:10:10.365Z,1.52
2023-01-17T06:11:10.355Z,1.52
2023-01-17T06:12:10.322Z,1.53
2023-01-17T06:13:10.346Z,1.55
2023-01-17T06:14:10.303Z,1.53
2023-01-17T06:15:10.303Z,1.53
2023-01-17T06:16:10.368Z,1.52
2023-01-17T06:17:10.288Z,1.52
2023-01-17T06:18:10.299Z,1.53
2023-01-17T06:19:10.280Z,1.49
2023-01-17T06:20:10.288Z,1.52
2023-01-17T06:21:10.259Z,1.52
2023-01-17T06:22:10.258Z,1.49
2023-01-17T06:23:10.249Z,1.52
2023-01-17T06:24:10.230Z,1.49
2023-01-17T06:25:10.249Z,1.46
2023-01-17T06:26:10.194Z,1.45
2023-01-17T06:27:10.192Z,1.44
2023-01-17T06:28:10.183Z,1.42
2023-01-17T06:29:10.358Z,1.42
2023-01-17T06:30:10.174Z,1.39
2023-01-17T06:31:10.170Z,1.36
2023-01-17T06:32:10.152Z,1.31
2023-01-17T06:33:10.110Z,1.28
2023-01-17T06:34:10.101Z,1.26
2023-01-17T06:35:10.093Z,1.26
2023-01-17T06:36:10.088Z,1.24
2023-01-17T06:37:10.103Z,1.20
2023-01-17T06:38:10.049Z,1.20
2023-01-17T06:40:07.868Z,1.17
2023-01-17T06:41:08.739Z,1.13
2023-01-17T06:42:08.739Z,1.12
2023-01-17T06:43:08.743Z,1.09
2023-01-17T06:44:08.712Z,1.09
2023-01-17T06:45:10.150Z,1.08
2023-01-17T06:46:08.681Z,1.10
2023-01-17T06:47:08.691Z,1.10
2023-01-17T06:48:10.550Z,1.08
2023-01-17T06:49:08.665Z,1.08
2023-01-17T06:50:08.671Z,1.08
2023-01-17T06:51:08.679Z,1.09
2023-01-17T06:52:08.649Z,1.10
2023-01-17T06:53:08.715Z,1.12
2023-01-17T06:54:08.592Z,1.13
2023-01-17T06:55:08.594Z,1.16
2023-01-17T06:56:08.533Z,1.16
2023-01-17T06:57:08.784Z,1.13
2023-01-17T06:58:08.591Z,1.16
2023-01-17T06:59:08.659Z,1.17
2023-01-17T07:00:08.623Z,1.18
2023-01-17T07:01:08.597Z,1.18
2023-01-17T07:02:08.518Z,1.17
2023-01-17T07:03:08.541Z,1.20
2023-01-17T07:04:08.553Z,1.18
2023-01-17T07:05:08.427Z,1.20
2023-01-17T07:06:08.427Z,1.20
2023-01-17T07:07:08.777Z,1.20
2023-01-17T07:08:11.083Z,1.21
2023-01-17T07:09:08.389Z,1.21
2023-01-17T07:10:08.375Z,1.20
2023-01-17T07:11:08.527Z,1.21
2023-01-17T07:12:08.434Z,1.23
2023-01-17T07:13:08.411Z,1.24
2023-01-17T07:14:08.325Z,1.24
2023-01-17T07:15:08.475Z,1.27
2023-01-17T07:16:08.473Z,1.24
2023-01-17T07:17:08.365Z,1.24
2023-01-17T07:18:08.315Z,1.24
2023-01-17T07:19:08.285Z,1.24
2023-01-17T07:20:08.292Z,1.23
2023-01-17T07:21:08.348Z,1.20
2023-01-17T07:22:08.306Z,1.18
2023-01-17T07:23:08.306Z,1.18
2023-01-17T07:24:08.250Z,1.16
2023-01-17T07:25:08.279Z,1.13
2023-01-17T07:26:08.217Z,1.13
2023-01-17T07:27:08.209Z,1.12
2023-01-17T07:28:08.260Z,1.10
2023-01-17T07:29:08.185Z,1.10
2023-01-17T07:30:08.219Z,1.09
2023-01-17T07:31:08.276Z,1.10
2023-01-17T07:32:09.012Z,1.10
2023-01-17T07:33:08.148Z,1.09
2023-01-17T07:34:08.199Z,1.12
2023-01-17T07:35:08.133Z,1.10
2023-01-17T07:36:08.156Z,1.10
2023-01-17T07:37:08.178Z,1.13
2023-01-17T07:38:08.110Z,1.12
2023-01-17T07:39:08.187Z,1.10
2023-01-17T07:40:08.072Z,1.13
2023-01-17T07:41:10.909Z,1.13
2023-01-17T07:42:08.058Z,1.12
2023-01-17T07:43:08.271Z,1.10
2023-01-17T07:44:08.068Z,1.06
2023-01-17T07:45:08.026Z,1.06
2023-01-17T07:46:08.079Z,1.08
2023-01-17T07:47:08.056Z,1.05
2023-01-17T07:48:07.992Z,1.06
2023-01-17T07:49:08.049Z,1.06
2023-01-17T07:50:07.988Z,1.08
2023-01-17T07:51:07.967Z,1.08
2023-01-17T07:52:07.958Z,1.09
2023-01-17T07:53:07.980Z,1.09
2023-01-17T07:54:07.966Z,1.12
2023-01-17T07:55:08.629Z,1.12
2023-01-17T07:56:07.917Z,1.16
2023-01-17T07:57:07.915Z,1.16
2023-01-17T07:58:07.898Z,1.16
2023-01-17T07:59:07.923Z,1.16
2023-01-17T08:00:07.910Z,1.16
2023-01-17T08:01:07.961Z,1.17
2023-01-17T08:02:07.955Z,1.16
2023-01-17T08:03:07.847Z,1.17
2023-01-17T08:04:07.937Z,1.17
2023-01-17T08:05:07.842Z,1.21
2023-01-17T08:06:07.818Z,1.21
2023-01-17T08:07:07.804Z,1.18
2023-01-17T08:08:07.886Z,1.20
2023-01-17T08:09:07.865Z,1.20
2023-01-17T08:10:07.799Z,1.20
2023-01-17T08:11:07.794Z,1.24
2023-01-17T08:12:07.849Z,1.23
2023-01-17T08:13:07.758Z,1.21
2023-01-17T08:14:07.755Z,1.21
2023-01-17T08:15:07.742Z,1.20
2023-01-17T08:16:07.748Z,1.21
2023-01-17T08:17:07.722Z,1.21
2023-01-17T08:18:07.725Z,1.24
2023-01-17T08:19:07.779Z,1.24
2023-01-17T08:20:07.731Z,1.27
2023-01-17T08:21:07.776Z,1.26
2023-01-17T08:22:07.813Z,1.30
2023-01-17T08:23:07.656Z,1.27
2023-01-17T08:24:07.865Z,1.27
2023-01-17T08:25:07.637Z,1.31
2023-01-17T08:26:07.607Z,1.31
2023-01-17T08:27:07.613Z,1.31
2023-01-17T08:28:07.647Z,1.34
2023-01-17T08:29:07.583Z,1.31
2023-01-17T08:30:07.762Z,1.34
2023-01-17T08:31:07.622Z,1.36
2023-01-17T08:32:07.611Z,1.39
2023-01-17T08:33:07.593Z,1.42
2023-01-17T08:34:07.535Z,1.45
2023-01-17T08:35:07.543Z,1.49
2023-01-17T08:36:07.541Z,1.52
2023-01-17T08:37:07.524Z,1.48
2023-01-17T08:38:07.515Z,1.49
2023-01-17T08:39:07.485Z,1.48
2023-01-17T08:40:07.477Z,1.49
2023-01-17T08:41:07.476Z,1.46
2023-01-17T08:42:07.478Z,1.44
2023-01-17T08:43:07.441Z,1.45
2023-01-17T08:44:07.487Z,1.42
2023-01-17T08:45:07.468Z,1.41
2023-01-17T08:46:07.487Z,1.42
2023-01-17T08:47:07.419Z,1.44
2023-01-17T08:48:08.032Z,1.45
2023-01-17T08:49:07.391Z,1.49
2023-01-17T08:50:07.379Z,1.56
2023-01-17T08:51:07.422Z,1.52
2023-01-17T08:52:07.357Z,1.53
2023-01-17T08:53:07.361Z,1.52
2023-01-17T08:54:07.326Z,1.41
2023-01-17T08:55:07.420Z,1.38
2023-01-17T08:56:07.364Z,1.31
2023-01-17T08:57:07.306Z,1.26
2023-01-17T08:58:07.304Z,1.24
2023-01-17T08:59:07.351Z,1.23
2023-01-17T09:00:07.265Z,1.21
2023-01-17T09:01:08.275Z,1.20
2023-01-17T09:02:07.386Z,1.23
2023-01-17T09:03:07.262Z,1.24
2023-01-17T09:04:07.295Z,1.26
2023-01-17T09:05:07.222Z,1.26
2023-01-17T09:06:07.198Z,1.28
2023-01-17T09:07:07.200Z,1.34
2023-01-17T09:08:07.976Z,1.34
2023-01-17T09:09:07.177Z,1.34
2023-01-17T09:10:07.186Z,1.30
2023-01-17T09:11:07.186Z,1.30
2023-01-17T09:12:07.137Z,1.35
2023-01-17T09:13:07.215Z,1.34
2023-01-17T09:14:07.192Z,1.31
2023-01-17T09:15:07.124Z,1.31
2023-01-17T09:16:07.316Z,1.31
2023-01-17T09:17:07.116Z,1.35
2023-01-17T09:18:07.091Z,1.35
2023-01-17T09:19:07.092Z,1.41
2023-01-17T09:20:07.059Z,1.48
2023-01-17T09:21:07.052Z,1.56
2023-01-17T09:22:07.109Z,1.64
2023-01-17T09:23:07.053Z,1.64
2023-01-17T09:24:07.075Z,1.71
2023-01-17T09:25:07.044Z,1.73
2023-01-17T09:26:07.001Z,1.67
2023-01-17T09:27:07.002Z,1.67
2023-01-17T09:28:06.991Z,1.74
2023-01-17T09:29:06.988Z,1.78
2023-01-17T09:30:06.986Z,1.89
2023-01-17T09:31:07.011Z,2.00
2023-01-17T09:32:06.946Z,2.14
2023-01-17T09:33:06.935Z,2.04
2023-01-17T09:34:06.919Z,2.00
2023-01-17T09:35:06.940Z,1.87
2023-01-17T09:36:06.904Z,1.85
2023-01-17T09:37:06.889Z,1.87
2023-01-17T09:38:06.879Z,1.82
2023-01-17T09:39:06.892Z,1.75
2023-01-17T09:40:06.848Z,1.74
2023-01-17T09:41:06.874Z,1.71
2023-01-17T09:42:06.834Z,1.67
2023-01-17T09:43:06.881Z,1.73
2023-01-17T09:44:06.824Z,1.73
2023-01-17T09:45:06.842Z,1.78
2023-01-17T09:46:06.896Z,1.81
2023-01-17T09:47:06.865Z,1.87
2023-01-17T09:48:06.800Z,1.87
2023-01-17T09:49:06.778Z,1.85
2023-01-17T09:50:06.775Z,1.82
2023-01-17T09:51:06.762Z,1.81
2023-01-17T09:52:06.742Z,1.82
2023-01-17T09:53:06.729Z,1.81
2023-01-17T09:54:06.727Z,1.85
2023-01-17T09:55:08.201Z,1.82
2023-01-17T09:56:06.699Z,1.84
2023-01-17T09:57:06.699Z,1.87
2023-01-17T09:58:06.665Z,1.82
2023-01-17T09:59:06.668Z,1.78
2023-01-17T10:00:06.674Z,1.77
2023-01-17T10:01:06.735Z,1.75
2023-01-17T10:02:06.807Z,1.71
2023-01-17T10:03:06.750Z,1.69
2023-01-17T10:04:06.660Z,1.71
2023-01-17T10:05:06.691Z,1.78
2023-01-17T10:06:06.655Z,1.77
2023-01-17T10:07:06.590Z,1.81
2023-01-17T10:08:06.571Z,2.12
2023-01-17T10:09:06.566Z,2.18
2023-01-17T10:10:06.586Z,2.32
2023-01-17T10:11:06.573Z,2.28
2023-01-17T10:12:06.529Z,2.22
2023-01-17T10:13:06.533Z,2.35
2023-01-17T10:14:06.532Z,2.58
2023-01-17T10:15:06.862Z,3.41
2023-01-17T10:16:06.528Z,4.17
2023-01-17T10:17:06.544Z,4.61
2023-01-17T10:18:06.506Z,4.82
2023-01-17T10:19:06.543Z,5.12
2023-01-17T10:20:06.505Z,5.15
2023-01-17T10:21:06.490Z,4.67
2023-01-17T10:22:06.443Z,4.53
2023-01-17T10:23:06.460Z,4.72
2023-01-17T10:24:06.817Z,5.18
2023-01-17T10:25:06.413Z,5.48
2023-01-17T10:26:06.424Z,4.96
2023-01-17T10:27:06.398Z,4.83
2023-01-17T10:28:06.442Z,5.11
2023-01-17T10:29:06.371Z,5.15
2023-01-17T10:30:06.347Z,5.47
2023-01-17T10:31:06.677Z,5.72
2023-01-17T10:32:06.373Z,5.85
2023-01-17T10:33:06.347Z,5.82
2023-01-17T10:34:06.331Z,5.76
2023-01-17T10:35:06.334Z,6.09
2023-01-17T10:36:06.295Z,6.21
2023-01-17T10:37:06.322Z,5.82
2023-01-17T10:38:06.271Z,5.57
2023-01-17T10:39:06.331Z,5.44
2023-01-17T10:40:06.245Z,4.89
2023-01-17T10:41:06.281Z,4.35
2023-01-17T10:42:06.246Z,4.00
2023-01-17T10:43:06.261Z,3.70
2023-01-17T10:44:06.287Z,3.48
2023-01-17T10:45:06.290Z,3.27
2023-01-17T10:46:06.214Z,3.14
2023-01-17T10:47:06.365Z,2.97
2023-01-17T10:48:06.239Z,2.81
2023-01-17T10:49:06.230Z,2.78
2023-01-17T10:50:06.166Z,2.69
2023-01-17T10:51:06.145Z,2.68
2023-01-17T10:52:06.135Z,2.75
2023-01-17T10:53:06.157Z,2.73
2023-01-17T10:54:06.091Z,2.86
2023-01-17T10:55:06.112Z,2.91
2023-01-17T10:56:06.090Z,3.04
2023-01-17T10:57:06.090Z,3.32
2023-01-17T10:58:06.073Z,4.12
2023-01-17T10:59:06.292Z,4.57
2023-01-17T11:00:06.040Z,5.52
2023-01-17T11:01:06.130Z,6.24
2023-01-17T11:02:06.277Z,6.64
2023-01-17T11:03:06.738Z,7.28
2023-01-17T11:04:06.056Z,7.61
2023-01-17T11:05:06.010Z,7.55
2023-01-17T11:06:05.990Z,7.88
2023-01-17T11:07:06.002Z,8.29
2023-01-17T11:08:05.956Z,8.39
2023-01-17T11:09:05.965Z,8.42
2023-01-17T11:10:05.917Z,8.34
2023-01-17T11:11:05.930Z,8.05
2023-01-17T11:12:05.901Z,7.61
2023-01-17T11:13:06.143Z,7.34
2023-01-17T11:14:05.891Z,6.74
2023-01-17T11:15:05.875Z,6.24
2023-01-17T11:16:06.021Z,6.08
2023-01-17T11:17:05.907Z,5.84
2023-01-17T11:18:05.862Z,5.54
2023-01-17T11:19:05.906Z,5.09
2023-01-17T11:20:14.159Z,5.11
2023-01-17T11:21:05.831Z,4.83
2023-01-17T11:22:05.811Z,4.67
2023-01-17T11:23:05.807Z,4.61
2023-01-17T11:24:05.808Z,5.01
2023-01-17T11:25:05.912Z,5.66
2023-01-17T11:26:05.770Z,6.47
2023-01-17T11:27:05.748Z,7.26
2023-01-17T11:28:05.740Z,7.54
2023-01-17T11:29:05.778Z,7.71
2023-01-17T11:30:05.735Z,7.99
2023-01-17T11:31:05.728Z,8.59
2023-01-17T11:32:05.703Z,8.67
2023-01-17T11:33:05.687Z,8.49
2023-01-17T11:34:05.707Z,8.29
2023-01-17T11:35:05.757Z,8.37
2023-01-17T11:36:05.676Z,8.75
2023-01-17T11:37:05.651Z,9.34
2023-01-17T11:38:05.754Z,9.37
2023-01-17T11:39:05.652Z,9.45
2023-01-17T11:40:05.632Z,9.08
2023-01-17T11:41:05.631Z,8.52
2023-01-17T11:42:05.601Z,8.17
2023-01-17T11:43:05.575Z,7.57
2023-01-17T11:44:05.583Z,7.04
2023-01-17T11:45:05.579Z,6.68
2023-01-17T11:46:05.602Z,6.06
2023-01-17T11:47:05.528Z,5.66
2023-01-17T11:48:05.549Z,5.50
2023-01-17T11:49:05.579Z,5.40
2023-01-17T11:50:05.512Z,5.14
2023-01-17T11:51:05.501Z,5.09
2023-01-17T11:52:05.488Z,5.01
2023-01-17T11:53:05.501Z,4.98
2023-01-17T11:54:05.624Z,5.00
2023-01-17T11:55:05.508Z,5.03
2023-01-17T11:56:05.493Z,5.55
2023-01-17T11:57:05.444Z,6.06
2023-01-17T11:58:05.687Z,6.34
2023-01-17T11:59:05.652Z,6.65
2023-01-17T12:00:05.472Z,6.99
2023-01-17T12:01:05.885Z,7.24
2023-01-17T12:02:05.430Z,7.43
2023-01-17T12:03:05.438Z,7.49
2023-01-17T12:04:05.654Z,7.69
2023-01-17T12:05:05.409Z,7.50
2023-01-17T12:06:05.355Z,7.42
2023-01-17T12:07:05.545Z,7.26
2023-01-17T12:08:05.596Z,7.28
2023-01-17T12:09:05.440Z,7.13
2023-01-17T12:10:05.363Z,6.88
2023-01-17T12:11:05.306Z,6.82
2023-01-17T12:12:05.423Z,7.25
2023-01-17T12:13:05.430Z,7.52
2023-01-17T12:14:05.310Z,8.04
2023-01-17T12:15:05.243Z,8.32
2023-01-17T12:16:05.269Z,8.29
2023-01-17T12:17:05.273Z,7.91
2023-01-17T12:18:05.280Z,7.64
2023-01-17T12:19:05.474Z,8.02
2023-01-17T12:20:05.327Z,8.23
2023-01-17T12:21:05.328Z,8.63
2023-01-17T12:22:05.186Z,8.93
2023-01-17T12:23:05.177Z,9.52
2023-01-17T12:24:05.151Z,9.91
2023-01-17T12:25:05.166Z,10.06
2023-01-17T12:26:05.138Z,9.22
2023-01-17T12:27:05.183Z,9.57
2023-01-17T12:28:05.499Z,9.70
2023-01-17T12:29:05.098Z,8.93
2023-01-17T12:30:05.161Z,8.05
2023-01-17T12:31:05.104Z,7.42
2023-01-17T12:32:05.088Z,7.00
2023-01-17T12:33:05.070Z,6.93
2023-01-17T12:34:07.246Z,6.55
2023-01-17T12:35:05.064Z,6.21
2023-01-17T12:36:05.182Z,6.13
2023-01-17T12:37:05.031Z,6.18
2023-01-17T12:38:05.565Z,6.43
2023-01-17T12:39:05.031Z,6.97
2023-01-17T12:40:11.504Z,7.36
2023-01-17T12:41:04.956Z,7.43
2023-01-17T12:42:05.679Z,7.69
2023-01-17T12:43:04.990Z,7.91
2023-01-17T12:44:05.063Z,8.17
2023-01-17T12:45:04.967Z,8.65
2023-01-17T12:46:04.939Z,8.62
2023-01-17T12:47:04.955Z,8.53
2023-01-17T12:48:04.931Z,8.23
2023-01-17T12:49:04.945Z,7.60
2023-01-17T12:50:04.919Z,6.85
2023-01-17T12:51:04.861Z,6.25
2023-01-17T12:52:04.910Z,5.80
2023-01-17T12:53:04.838Z,5.54
2023-01-17T12:54:04.879Z,5.40
2023-01-17T12:55:04.843Z,5.30
2023-01-17T12:56:04.822Z,5.57
2023-01-17T12:57:04.798Z,6.25
2023-01-17T12:58:04.783Z,6.57
2023-01-17T12:59:04.799Z,6.57
2023-01-17T13:00:04.775Z,6.75
2023-01-17T13:01:04.927Z,6.96
2023-01-17T13:02:04.841Z,7.26
2023-01-17T13:03:04.825Z,6.73
2023-01-17T13:04:04.735Z,6.50
2023-01-17T13:05:04.775Z,6.38
2023-01-17T13:06:04.860Z,6.53
2023-01-17T13:07:04.691Z,6.43
2023-01-17T13:08:04.688Z,6.67
2023-01-17T13:09:04.696Z,6.53
2023-01-17T13:10:04.694Z,6.85
2023-01-17T13:11:04.648Z,6.75
2023-01-17T13:12:04.649Z,6.55
2023-01-17T13:13:04.635Z,6.37
2023-01-17T13:14:04.702Z,6.13
2023-01-17T13:15:04.638Z,6.08
2023-01-17T13:16:04.665Z,5.90
2023-01-17T13:17:04.580Z,5.80
2023-01-17T13:18:04.605Z,5.61
2023-01-17T13:19:04.566Z,5.51